sensor_id;sensor_type;location;lat;lon;timestamp;temperature;humidity
55211;DHT22;41082;52.822;6.666;2022-12-11T00:02:04;0.70;99.90
55211;DHT22;41082;52.822;6.666;2022-12-11T00:04:30;0.70;99.90
55211;DHT22;41082;52.822;6.666;2022-12-11T00:06:56;0.70;99.90
55211;DHT22;41082;52.822;6.666;2022-12-11T00:09:21;0.70;99.90
55211;DHT22;41082;52.822;6.666;2022-12-11T00:11:47;0.70;99.90
55211;DHT22;41082;52.822;6.666;2022-12-11T00:14:14;0.70;99.90
55211;DHT22;41082;52.822;6.666;2022-12-11T00:16:40;0.70;99.90
55211;DHT22;41082;52.822;6.666;2022-12-11T00:19:07;0.70;99.90
55211;DHT22;41082;52.822;6.666;2022-12-11T00:21:33;0.70;99.90
55211;DHT22;41082;52.822;6.666;2022-12-11T00:23:59;0.70;99.90
55211;DHT22;41082;52.822;6.666;2022-12-11T00:26:24;0.80;99.90
55211;DHT22;41082;52.822;6.666;2022-12-11T00:28:54;0.80;99.90
55211;DHT22;41082;52.822;6.666;2022-12-11T00:31:21;0.80;99.90
55211;DHT22;41082;52.822;6.666;2022-12-11T00:33:47;0.80;99.90
55211;DHT22;41082;52.822;6.666;2022-12-11T00:36:16;0.80;99.90
55211;DHT22;41082;52.822;6.666;2022-12-11T00:38:42;0.80;99.90
55211;DHT22;41082;52.822;6.666;2022-12-11T00:41:08;0.90;99.90
55211;DHT22;41082;52.822;6.666;2022-12-11T00:43:34;0.90;99.90
55211;DHT22;41082;52.822;6.666;2022-12-11T00:46:00;0.90;99.90
55211;DHT22;41082;52.822;6.666;2022-12-11T00:48:25;0.90;99.90
55211;DHT22;41082;52.822;6.666;2022-12-11T00:50:51;0.90;99.90
55211;DHT22;41082;52.822;6.666;2022-12-11T00:53:17;0.90;99.90
55211;DHT22;41082;52.822;6.666;2022-12-11T00:55:42;0.90;99.90
55211;DHT22;41082;52.822;6.666;2022-12-11T00:58:09;0.90;99.90
55211;DHT22;41082;52.822;6.666;2022-12-11T01:00:36;1.00;99.90
55211;DHT22;41082;52.822;6.666;2022-12-11T01:03:02;0.90;99.90
55211;DHT22;41082;52.822;6.666;2022-12-11T01:05:28;0.90;99.90
55211;DHT22;41082;52.822;6.666;2022-12-11T01:07:53;0.90;99.90
55211;DHT22;41082;52.822;6.666;2022-12-11T01:10:19;0.90;99.90
55211;DHT22;41082;52.822;6.666;2022-12-11T01:12:52;0.90;99.90
55211;DHT22;41082;52.822;6.666;2022-12-11T01:15:19;1.00;99.90
55211;DHT22;41082;52.822;6.666;2022-12-11T01:17:45;1.00;99.90
55211;DHT22;41082;52.822;6.666;2022-12-11T01:20:11;1.00;99.90
55211;DHT22;41082;52.822;6.666;2022-12-11T01:22:37;1.00;99.90
55211;DHT22;41082;52.822;6.666;2022-12-11T01:25:03;1.00;99.90
55211;DHT22;41082;52.822;6.666;2022-12-11T01:27:29;1.00;99.90
55211;DHT22;41082;52.822;6.666;2022-12-11T01:29:55;1.00;99.90
55211;DHT22;41082;52.822;6.666;2022-12-11T01:32:21;1.00;99.90
55211;DHT22;41082;52.822;6.666;2022-12-11T01:34:46;1.00;99.90
55211;DHT22;41082;52.822;6.666;2022-12-11T01:37:12;1.00;99.90
55211;DHT22;41082;52.822;6.666;2022-12-11T01:39:37;1.10;99.90
55211;DHT22;41082;52.822;6.666;2022-12-11T01:42:03;1.10;99.90
55211;DHT22;41082;52.822;6.666;2022-12-11T01:46:56;1.10;99.90
55211;DHT22;41082;52.822;6.666;2022-12-11T01:49:24;1.10;99.90
55211;DHT22;41082;52.822;6.666;2022-12-11T01:54:19;1.10;99.90
55211;DHT22;41082;52.822;6.666;2022-12-11T01:56:47;1.10;99.90
55211;DHT22;41082;52.822;6.666;2022-12-11T01:59:17;1.10;99.90
55211;DHT22;41082;52.822;6.666;2022-12-11T02:02:18;1.10;99.90
55211;DHT22;41082;52.822;6.666;2022-12-11T02:04:45;1.10;99.90
55211;DHT22;41082;52.822;6.666;2022-12-11T02:07:11;1.10;99.90
55211;DHT22;41082;52.822;6.666;2022-12-11T02:09:40;1.10;99.90
55211;DHT22;41082;52.822;6.666;2022-12-11T02:12:23;1.10;99.90
55211;DHT22;41082;52.822;6.666;2022-12-11T02:18:11;1.10;99.90
55211;DHT22;41082;52.822;6.666;2022-12-11T02:28:45;1.20;99.90
55211;DHT22;41082;52.822;6.666;2022-12-11T02:31:33;1.30;99.90
55211;DHT22;41082;52.822;6.666;2022-12-11T02:36:32;1.20;99.90
55211;DHT22;41082;52.822;6.666;2022-12-11T02:39:00;1.20;99.90
55211;DHT22;41082;52.822;6.666;2022-12-11T02:41:27;1.20;99.90
55211;DHT22;41082;52.822;6.666;2022-12-11T02:43:55;1.30;99.90
55211;DHT22;41082;52.822;6.666;2022-12-11T02:46:22;1.20;99.90
55211;DHT22;41082;52.822;6.666;2022-12-11T02:48:49;1.20;99.90
55211;DHT22;41082;52.822;6.666;2022-12-11T02:51:17;1.20;99.90
55211;DHT22;41082;52.822;6.666;2022-12-11T02:53:44;1.30;99.90
55211;DHT22;41082;52.822;6.666;2022-12-11T02:56:15;1.30;99.90
55211;DHT22;41082;52.822;6.666;2022-12-11T02:58:52;1.30;99.90
55211;DHT22;41082;52.822;6.666;2022-12-11T03:01:19;1.30;99.90
55211;DHT22;41082;52.822;6.666;2022-12-11T03:03:44;1.30;99.90
55211;DHT22;41082;52.822;6.666;2022-12-11T03:06:12;1.30;99.90
55211;DHT22;41082;52.822;6.666;2022-12-11T03:08:40;1.30;99.90
55211;DHT22;41082;52.822;6.666;2022-12-11T03:11:10;1.30;99.90
55211;DHT22;41082;52.822;6.666;2022-12-11T03:13:36;1.40;99.90
55211;DHT22;41082;52.822;6.666;2022-12-11T03:18:39;1.40;99.90
55211;DHT22;41082;52.822;6.666;2022-12-11T03:21:15;1.40;99.90
55211;DHT22;41082;52.822;6.666;2022-12-11T03:23:55;1.40;99.90
55211;DHT22;41082;52.822;6.666;2022-12-11T03:26:23;1.40;99.90
55211;DHT22;41082;52.822;6.666;2022-12-11T03:29:00;1.40;99.90
55211;DHT22;41082;52.822;6.666;2022-12-11T03:31:59;1.40;99.90
55211;DHT22;41082;52.822;6.666;2022-12-11T03:34:32;1.40;99.90
55211;DHT22;41082;52.822;6.666;2022-12-11T03:37:04;1.40;99.90
55211;DHT22;41082;52.822;6.666;2022-12-11T03:39:41;1.50;99.90
55211;DHT22;41082;52.822;6.666;2022-12-11T03:42:10;1.50;99.90
55211;DHT22;41082;52.822;6.666;2022-12-11T03:44:37;1.50;99.90
55211;DHT22;41082;52.822;6.666;2022-12-11T03:47:06;1.50;99.90
55211;DHT22;41082;52.822;6.666;2022-12-11T03:49:38;1.50;99.90
55211;DHT22;41082;52.822;6.666;2022-12-11T03:52:06;1.50;99.90
55211;DHT22;41082;52.822;6.666;2022-12-11T03:54:33;1.40;99.90
55211;DHT22;41082;52.822;6.666;2022-12-11T03:57:01;1.40;99.90
55211;DHT22;41082;52.822;6.666;2022-12-11T03:59:28;1.40;99.90
55211;DHT22;41082;52.822;6.666;2022-12-11T04:01:54;1.50;99.90
55211;DHT22;41082;52.822;6.666;2022-12-11T04:04:19;1.50;99.90
55211;DHT22;41082;52.822;6.666;2022-12-11T04:06:45;1.50;99.90
55211;DHT22;41082;52.822;6.666;2022-12-11T04:09:10;1.50;99.90
55211;DHT22;41082;52.822;6.666;2022-12-11T04:11:36;1.50;99.90
55211;DHT22;41082;52.822;6.666;2022-12-11T04:14:13;1.50;99.90
55211;DHT22;41082;52.822;6.666;2022-12-11T04:16:58;1.50;99.90
55211;DHT22;41082;52.822;6.666;2022-12-11T04:19:24;1.40;99.90
55211;DHT22;41082;52.822;6.666;2022-12-11T04:22:10;1.40;99.90
55211;DHT22;41082;52.822;6.666;2022-12-11T04:24:54;1.50;99.90
55211;DHT22;41082;52.822;6.666;2022-12-11T04:27:20;1.40;99.90
55211;DHT22;41082;52.822;6.666;2022-12-11T04:30:09;1.50;99.90
55211;DHT22;41082;52.822;6.666;2022-12-11T04:32:35;1.50;99.90
55211;DHT22;41082;52.822;6.666;2022-12-11T04:35:00;1.50;99.90
55211;DHT22;41082;52.822;6.666;2022-12-11T04:37:27;1.50;99.90
55211;DHT22;41082;52.822;6.666;2022-12-11T04:39:52;1.50;99.90
55211;DHT22;41082;52.822;6.666;2022-12-11T04:42:18;1.50;99.90
55211;DHT22;41082;52.822;6.666;2022-12-11T04:44:43;1.50;99.90
55211;DHT22;41082;52.822;6.666;2022-12-11T04:47:09;1.50;99.90
55211;DHT22;41082;52.822;6.666;2022-12-11T04:49:35;1.50;99.90
55211;DHT22;41082;52.822;6.666;2022-12-11T04:52:00;1.50;99.90
55211;DHT22;41082;52.822;6.666;2022-12-11T04:54:28;1.50;99.90
55211;DHT22;41082;52.822;6.666;2022-12-11T04:56:54;1.50;99.90
55211;DHT22;41082;52.822;6.666;2022-12-11T04:59:19;1.50;99.90
55211;DHT22;41082;52.822;6.666;2022-12-11T05:01:45;1.50;99.90
55211;DHT22;41082;52.822;6.666;2022-12-11T05:04:10;1.50;99.90
55211;DHT22;41082;52.822;6.666;2022-12-11T05:06:36;1.50;99.90
55211;DHT22;41082;52.822;6.666;2022-12-11T05:09:01;1.50;99.90
55211;DHT22;41082;52.822;6.666;2022-12-11T05:11:27;1.50;99.90
55211;DHT22;41082;52.822;6.666;2022-12-11T05:13:53;1.50;99.90
55211;DHT22;41082;52.822;6.666;2022-12-11T05:16:18;1.50;99.90
55211;DHT22;41082;52.822;6.666;2022-12-11T05:18:44;1.50;99.90
55211;DHT22;41082;52.822;6.666;2022-12-11T05:21:12;1.50;99.90
55211;DHT22;41082;52.822;6.666;2022-12-11T05:23:38;1.50;99.90
55211;DHT22;41082;52.822;6.666;2022-12-11T05:26:13;1.50;99.90
55211;DHT22;41082;52.822;6.666;2022-12-11T05:28:39;1.50;99.90
55211;DHT22;41082;52.822;6.666;2022-12-11T05:31:13;1.50;99.90
55211;DHT22;41082;52.822;6.666;2022-12-11T05:33:39;1.50;99.90
55211;DHT22;41082;52.822;6.666;2022-12-11T05:36:06;1.50;99.90
55211;DHT22;41082;52.822;6.666;2022-12-11T05:38:31;1.50;99.90
55211;DHT22;41082;52.822;6.666;2022-12-11T05:41:02;1.50;99.90
55211;DHT22;41082;52.822;6.666;2022-12-11T05:43:29;1.50;99.90
55211;DHT22;41082;52.822;6.666;2022-12-11T05:45:56;1.50;99.90
55211;DHT22;41082;52.822;6.666;2022-12-11T05:48:28;1.50;99.90
55211;DHT22;41082;52.822;6.666;2022-12-11T05:50:59;1.50;99.90
55211;DHT22;41082;52.822;6.666;2022-12-11T05:53:25;1.50;99.90
55211;DHT22;41082;52.822;6.666;2022-12-11T05:55:51;1.50;99.90
55211;DHT22;41082;52.822;6.666;2022-12-11T05:58:17;1.60;99.90
55211;DHT22;41082;52.822;6.666;2022-12-11T06:00:43;1.50;99.90
55211;DHT22;41082;52.822;6.666;2022-12-11T06:03:08;1.50;99.90
55211;DHT22;41082;52.822;6.666;2022-12-11T06:05:41;1.50;99.90
55211;DHT22;41082;52.822;6.666;2022-12-11T06:08:07;1.60;99.90
55211;DHT22;41082;52.822;6.666;2022-12-11T06:10:32;1.60;99.90
55211;DHT22;41082;52.822;6.666;2022-12-11T06:12:58;1.60;99.90
55211;DHT22;41082;52.822;6.666;2022-12-11T06:15:24;1.60;99.90
55211;DHT22;41082;52.822;6.666;2022-12-11T06:17:50;1.60;99.90
55211;DHT22;41082;52.822;6.666;2022-12-11T06:20:15;1.60;99.90
55211;DHT22;41082;52.822;6.666;2022-12-11T06:22:41;1.60;99.90
55211;DHT22;41082;52.822;6.666;2022-12-11T06:25:07;1.60;99.90
55211;DHT22;41082;52.822;6.666;2022-12-11T06:27:32;1.60;99.90
55211;DHT22;41082;52.822;6.666;2022-12-11T06:29:58;1.70;99.90
55211;DHT22;41082;52.822;6.666;2022-12-11T06:32:23;1.60;99.90
55211;DHT22;41082;52.822;6.666;2022-12-11T06:34:49;1.60;99.90
55211;DHT22;41082;52.822;6.666;2022-12-11T06:37:14;1.70;99.90
55211;DHT22;41082;52.822;6.666;2022-12-11T06:39:40;1.60;99.90
55211;DHT22;41082;52.822;6.666;2022-12-11T06:42:06;1.60;99.90
55211;DHT22;41082;52.822;6.666;2022-12-11T06:44:31;1.70;99.90
55211;DHT22;41082;52.822;6.666;2022-12-11T06:46:57;1.60;99.90
55211;DHT22;41082;52.822;6.666;2022-12-11T06:49:22;1.60;99.90
55211;DHT22;41082;52.822;6.666;2022-12-11T06:51:48;1.70;99.90
55211;DHT22;41082;52.822;6.666;2022-12-11T06:54:13;1.70;99.90
55211;DHT22;41082;52.822;6.666;2022-12-11T06:56:39;1.70;99.90
55211;DHT22;41082;52.822;6.666;2022-12-11T06:59:05;1.70;99.90
55211;DHT22;41082;52.822;6.666;2022-12-11T07:01:31;1.70;99.90
55211;DHT22;41082;52.822;6.666;2022-12-11T07:03:58;1.70;99.90
55211;DHT22;41082;52.822;6.666;2022-12-11T07:06:25;1.70;99.90
55211;DHT22;41082;52.822;6.666;2022-12-11T07:08:51;1.70;99.90
55211;DHT22;41082;52.822;6.666;2022-12-11T07:11:18;1.70;99.90
55211;DHT22;41082;52.822;6.666;2022-12-11T07:13:44;1.70;99.90
55211;DHT22;41082;52.822;6.666;2022-12-11T07:16:11;1.70;99.90
55211;DHT22;41082;52.822;6.666;2022-12-11T07:18:41;1.70;99.90
55211;DHT22;41082;52.822;6.666;2022-12-11T07:21:07;1.70;99.90
55211;DHT22;41082;52.822;6.666;2022-12-11T07:23:34;1.70;99.90
55211;DHT22;41082;52.822;6.666;2022-12-11T07:26:08;1.70;99.90
55211;DHT22;41082;52.822;6.666;2022-12-11T07:28:34;1.70;99.90
55211;DHT22;41082;52.822;6.666;2022-12-11T07:31:12;1.70;99.90
55211;DHT22;41082;52.822;6.666;2022-12-11T07:33:38;1.70;99.90
55211;DHT22;41082;52.822;6.666;2022-12-11T07:36:05;1.80;99.90
55211;DHT22;41082;52.822;6.666;2022-12-11T07:38:31;1.80;99.90
55211;DHT22;41082;52.822;6.666;2022-12-11T07:41:00;1.70;99.90
55211;DHT22;41082;52.822;6.666;2022-12-11T07:43:26;1.80;99.90
55211;DHT22;41082;52.822;6.666;2022-12-11T07:45:51;1.70;99.90
55211;DHT22;41082;52.822;6.666;2022-12-11T07:48:17;1.70;99.90
55211;DHT22;41082;52.822;6.666;2022-12-11T07:50:43;1.70;99.90
55211;DHT22;41082;52.822;6.666;2022-12-11T07:53:08;1.80;99.90
55211;DHT22;41082;52.822;6.666;2022-12-11T07:55:34;1.80;99.90
55211;DHT22;41082;52.822;6.666;2022-12-11T07:57:59;1.80;99.90
55211;DHT22;41082;52.822;6.666;2022-12-11T08:00:25;1.80;99.90
55211;DHT22;41082;52.822;6.666;2022-12-11T08:02:50;1.80;99.90
55211;DHT22;41082;52.822;6.666;2022-12-11T08:05:16;1.80;99.90
55211;DHT22;41082;52.822;6.666;2022-12-11T08:07:41;1.80;99.90
55211;DHT22;41082;52.822;6.666;2022-12-11T08:10:07;1.80;99.90
55211;DHT22;41082;52.822;6.666;2022-12-11T08:12:33;1.80;99.90
55211;DHT22;41082;52.822;6.666;2022-12-11T08:14:59;1.80;99.90
55211;DHT22;41082;52.822;6.666;2022-12-11T08:17:24;1.80;99.90
55211;DHT22;41082;52.822;6.666;2022-12-11T08:19:50;1.90;99.90
55211;DHT22;41082;52.822;6.666;2022-12-11T08:22:15;1.90;99.90
55211;DHT22;41082;52.822;6.666;2022-12-11T08:24:41;1.90;99.90
55211;DHT22;41082;52.822;6.666;2022-12-11T08:27:06;1.80;99.90
55211;DHT22;41082;52.822;6.666;2022-12-11T08:29:33;1.80;99.90
55211;DHT22;41082;52.822;6.666;2022-12-11T08:31:58;1.80;99.90
55211;DHT22;41082;52.822;6.666;2022-12-11T08:34:24;1.90;99.90
55211;DHT22;41082;52.822;6.666;2022-12-11T08:36:50;1.90;99.90
55211;DHT22;41082;52.822;6.666;2022-12-11T08:39:15;1.90;99.90
55211;DHT22;41082;52.822;6.666;2022-12-11T08:41:41;1.90;99.90
55211;DHT22;41082;52.822;6.666;2022-12-11T08:44:10;1.90;99.90
55211;DHT22;41082;52.822;6.666;2022-12-11T08:46:36;1.80;99.90
55211;DHT22;41082;52.822;6.666;2022-12-11T08:49:03;1.90;99.90
55211;DHT22;41082;52.822;6.666;2022-12-11T08:51:29;1.80;99.90
55211;DHT22;41082;52.822;6.666;2022-12-11T08:53:59;1.80;99.90
55211;DHT22;41082;52.822;6.666;2022-12-11T08:56:26;1.90;99.90
55211;DHT22;41082;52.822;6.666;2022-12-11T08:58:52;1.80;99.90
55211;DHT22;41082;52.822;6.666;2022-12-11T09:01:24;1.80;99.90
55211;DHT22;41082;52.822;6.666;2022-12-11T09:03:51;1.80;99.90
55211;DHT22;41082;52.822;6.666;2022-12-11T09:06:19;1.90;99.90
55211;DHT22;41082;52.822;6.666;2022-12-11T09:08:47;1.90;99.90
55211;DHT22;41082;52.822;6.666;2022-12-11T09:11:16;1.90;99.90
55211;DHT22;41082;52.822;6.666;2022-12-11T09:13:43;1.90;99.90
55211;DHT22;41082;52.822;6.666;2022-12-11T09:16:12;1.90;99.90
55211;DHT22;41082;52.822;6.666;2022-12-11T09:18:38;1.90;99.90
55211;DHT22;41082;52.822;6.666;2022-12-11T09:21:10;1.90;99.90
55211;DHT22;41082;52.822;6.666;2022-12-11T09:23:37;1.90;99.90
55211;DHT22;41082;52.822;6.666;2022-12-11T09:26:04;1.90;99.90
55211;DHT22;41082;52.822;6.666;2022-12-11T09:28:30;1.90;99.90
55211;DHT22;41082;52.822;6.666;2022-12-11T09:30:56;1.90;99.90
55211;DHT22;41082;52.822;6.666;2022-12-11T09:33:22;2.00;99.90
55211;DHT22;41082;52.822;6.666;2022-12-11T09:36:08;2.00;99.90
55211;DHT22;41082;52.822;6.666;2022-12-11T09:38:34;2.00;99.90
55211;DHT22;41082;52.822;6.666;2022-12-11T09:41:01;2.00;99.90
55211;DHT22;41082;52.822;6.666;2022-12-11T09:43:48;2.00;99.90
55211;DHT22;41082;52.822;6.666;2022-12-11T09:46:17;2.00;99.90
55211;DHT22;41082;52.822;6.666;2022-12-11T09:48:45;2.00;99.90
55211;DHT22;41082;52.822;6.666;2022-12-11T09:51:33;2.00;99.90
55211;DHT22;41082;52.822;6.666;2022-12-11T09:54:02;2.00;99.90
55211;DHT22;41082;52.822;6.666;2022-12-11T09:56:44;2.00;99.90
55211;DHT22;41082;52.822;6.666;2022-12-11T09:59:44;2.00;99.90
55211;DHT22;41082;52.822;6.666;2022-12-11T10:02:38;2.00;99.90
55211;DHT22;41082;52.822;6.666;2022-12-11T10:05:35;2.10;99.90
55211;DHT22;41082;52.822;6.666;2022-12-11T10:08:18;2.10;99.90
55211;DHT22;41082;52.822;6.666;2022-12-11T10:10:47;2.10;99.90
55211;DHT22;41082;52.822;6.666;2022-12-11T10:13:37;2.10;99.90
55211;DHT22;41082;52.822;6.666;2022-12-11T10:16:38;2.10;99.90
55211;DHT22;41082;52.822;6.666;2022-12-11T10:19:04;2.10;99.90
55211;DHT22;41082;52.822;6.666;2022-12-11T10:21:38;2.10;99.90
55211;DHT22;41082;52.822;6.666;2022-12-11T10:24:19;2.10;99.90
55211;DHT22;41082;52.822;6.666;2022-12-11T10:26:46;2.10;99.90
55211;DHT22;41082;52.822;6.666;2022-12-11T10:29:13;2.10;99.90
55211;DHT22;41082;52.822;6.666;2022-12-11T10:31:49;2.10;99.90
55211;DHT22;41082;52.822;6.666;2022-12-11T10:36:53;2.20;99.90
55211;DHT22;41082;52.822;6.666;2022-12-11T10:39:21;2.20;99.90
55211;DHT22;41082;52.822;6.666;2022-12-11T10:41:51;2.20;99.90
55211;DHT22;41082;52.822;6.666;2022-12-11T10:44:19;2.20;99.90
55211;DHT22;41082;52.822;6.666;2022-12-11T10:46:47;2.20;99.90
55211;DHT22;41082;52.822;6.666;2022-12-11T10:49:28;2.20;99.90
55211;DHT22;41082;52.822;6.666;2022-12-11T10:51:56;2.20;99.90
55211;DHT22;41082;52.822;6.666;2022-12-11T10:54:37;2.20;99.90
55211;DHT22;41082;52.822;6.666;2022-12-11T10:57:05;2.20;99.90
55211;DHT22;41082;52.822;6.666;2022-12-11T10:59:47;2.20;99.90
55211;DHT22;41082;52.822;6.666;2022-12-11T11:02:38;2.20;99.90
55211;DHT22;41082;52.822;6.666;2022-12-11T11:05:35;2.20;99.90
55211;DHT22;41082;52.822;6.666;2022-12-11T11:10:58;2.20;99.90
55211;DHT22;41082;52.822;6.666;2022-12-11T11:13:29;2.10;99.90
55211;DHT22;41082;52.822;6.666;2022-12-11T11:16:07;2.20;99.90
55211;DHT22;41082;52.822;6.666;2022-12-11T11:18:34;2.20;99.90
55211;DHT22;41082;52.822;6.666;2022-12-11T11:21:01;2.20;99.90
55211;DHT22;41082;52.822;6.666;2022-12-11T11:23:28;2.20;99.90
55211;DHT22;41082;52.822;6.666;2022-12-11T11:25:56;2.20;99.90
55211;DHT22;41082;52.822;6.666;2022-12-11T11:28:46;2.20;99.90
55211;DHT22;41082;52.822;6.666;2022-12-11T11:31:14;2.20;99.90
55211;DHT22;41082;52.822;6.666;2022-12-11T11:33:55;2.20;99.90
55211;DHT22;41082;52.822;6.666;2022-12-11T11:36:27;2.30;99.90
55211;DHT22;41082;52.822;6.666;2022-12-11T11:39:09;2.20;99.90
55211;DHT22;41082;52.822;6.666;2022-12-11T11:41:55;2.30;99.90
55211;DHT22;41082;52.822;6.666;2022-12-11T11:44:42;2.30;99.90
55211;DHT22;41082;52.822;6.666;2022-12-11T11:47:18;2.30;99.90
55211;DHT22;41082;52.822;6.666;2022-12-11T11:52:31;2.30;99.90
55211;DHT22;41082;52.822;6.666;2022-12-11T11:55:18;2.30;99.90
55211;DHT22;41082;52.822;6.666;2022-12-11T11:57:53;2.40;99.90
55211;DHT22;41082;52.822;6.666;2022-12-11T12:00:26;2.30;99.90
55211;DHT22;41082;52.822;6.666;2022-12-11T12:03:04;2.30;99.90
55211;DHT22;41082;52.822;6.666;2022-12-11T12:05:56;2.30;99.90
55211;DHT22;41082;52.822;6.666;2022-12-11T12:08:36;2.30;99.90
55211;DHT22;41082;52.822;6.666;2022-12-11T12:17:05;2.30;99.90
55211;DHT22;41082;52.822;6.666;2022-12-11T12:23:05;2.30;99.90
55211;DHT22;41082;52.822;6.666;2022-12-11T12:25:40;2.30;99.90
55211;DHT22;41082;52.822;6.666;2022-12-11T12:31:25;2.30;99.90
55211;DHT22;41082;52.822;6.666;2022-12-11T12:36:56;2.30;99.90
55211;DHT22;41082;52.822;6.666;2022-12-11T12:39:47;2.30;99.90
55211;DHT22;41082;52.822;6.666;2022-12-11T12:45:43;2.30;99.90
55211;DHT22;41082;52.822;6.666;2022-12-11T12:48:12;2.30;99.90
55211;DHT22;41082;52.822;6.666;2022-12-11T12:50:45;2.30;99.90
55211;DHT22;41082;52.822;6.666;2022-12-11T12:53:16;2.30;99.90
55211;DHT22;41082;52.822;6.666;2022-12-11T12:55:44;2.30;99.90
55211;DHT22;41082;52.822;6.666;2022-12-11T12:58:40;2.30;99.90
55211;DHT22;41082;52.822;6.666;2022-12-11T13:01:26;2.30;99.90
55211;DHT22;41082;52.822;6.666;2022-12-11T13:04:05;2.30;99.90
55211;DHT22;41082;52.822;6.666;2022-12-11T13:06:41;2.30;99.90
55211;DHT22;41082;52.822;6.666;2022-12-11T13:11:45;2.30;99.90
55211;DHT22;41082;52.822;6.666;2022-12-11T13:16:48;2.30;99.90
55211;DHT22;41082;52.822;6.666;2022-12-11T13:24:59;2.20;99.90
55211;DHT22;41082;52.822;6.666;2022-12-11T13:27:38;2.20;99.90
55211;DHT22;41082;52.822;6.666;2022-12-11T13:32:39;2.30;99.90
55211;DHT22;41082;52.822;6.666;2022-12-11T13:35:06;2.20;99.90
55211;DHT22;41082;52.822;6.666;2022-12-11T13:37:40;2.20;99.90
55211;DHT22;41082;52.822;6.666;2022-12-11T13:40:22;2.20;99.90
55211;DHT22;41082;52.822;6.666;2022-12-11T13:42:53;2.20;99.90
55211;DHT22;41082;52.822;6.666;2022-12-11T13:45:29;2.20;99.90
55211;DHT22;41082;52.822;6.666;2022-12-11T13:47:58;2.20;99.90
55211;DHT22;41082;52.822;6.666;2022-12-11T13:50:27;2.20;99.90
55211;DHT22;41082;52.822;6.666;2022-12-11T13:52:55;2.20;99.90
55211;DHT22;41082;52.822;6.666;2022-12-11T13:55:32;2.20;99.90
55211;DHT22;41082;52.822;6.666;2022-12-11T13:57:59;2.20;99.90
55211;DHT22;41082;52.822;6.666;2022-12-11T14:00:27;2.20;99.90
55211;DHT22;41082;52.822;6.666;2022-12-11T14:02:55;2.20;99.90
55211;DHT22;41082;52.822;6.666;2022-12-11T14:05:22;2.20;99.90
55211;DHT22;41082;52.822;6.666;2022-12-11T14:07:50;2.20;99.90
55211;DHT22;41082;52.822;6.666;2022-12-11T14:10:23;2.20;99.90
55211;DHT22;41082;52.822;6.666;2022-12-11T14:16:05;2.20;99.90
55211;DHT22;41082;52.822;6.666;2022-12-11T14:18:32;2.20;99.90
55211;DHT22;41082;52.822;6.666;2022-12-11T14:21:02;2.10;99.90
55211;DHT22;41082;52.822;6.666;2022-12-11T14:23:35;2.10;99.90
55211;DHT22;41082;52.822;6.666;2022-12-11T14:26:10;2.10;99.90
55211;DHT22;41082;52.822;6.666;2022-12-11T14:28:41;2.10;99.90
55211;DHT22;41082;52.822;6.666;2022-12-11T14:31:06;2.10;99.90
55211;DHT22;41082;52.822;6.666;2022-12-11T14:33:53;2.10;99.90
55211;DHT22;41082;52.822;6.666;2022-12-11T14:36:20;2.10;99.90
55211;DHT22;41082;52.822;6.666;2022-12-11T14:38:50;2.10;99.90
55211;DHT22;41082;52.822;6.666;2022-12-11T14:41:21;2.10;99.90
55211;DHT22;41082;52.822;6.666;2022-12-11T14:43:52;2.10;99.90
55211;DHT22;41082;52.822;6.666;2022-12-11T14:46:31;2.10;99.90
55211;DHT22;41082;52.822;6.666;2022-12-11T14:49:04;2.10;99.90
55211;DHT22;41082;52.822;6.666;2022-12-11T14:51:32;2.10;99.90
55211;DHT22;41082;52.822;6.666;2022-12-11T14:54:02;2.10;99.90
55211;DHT22;41082;52.822;6.666;2022-12-11T14:56:34;2.10;99.90
55211;DHT22;41082;52.822;6.666;2022-12-11T14:59:05;2.10;99.90
55211;DHT22;41082;52.822;6.666;2022-12-11T15:01:44;2.10;99.90
55211;DHT22;41082;52.822;6.666;2022-12-11T15:04:21;2.20;99.90
55211;DHT22;41082;52.822;6.666;2022-12-11T15:06:50;2.10;99.90
55211;DHT22;41082;52.822;6.666;2022-12-11T15:09:28;2.20;99.90
55211;DHT22;41082;52.822;6.666;2022-12-11T15:12:25;2.20;99.90
55211;DHT22;41082;52.822;6.666;2022-12-11T15:14:54;2.20;99.90
55211;DHT22;41082;52.822;6.666;2022-12-11T15:17:27;2.10;99.90
55211;DHT22;41082;52.822;6.666;2022-12-11T15:20:07;2.10;99.90
55211;DHT22;41082;52.822;6.666;2022-12-11T15:22:35;2.20;99.90
55211;DHT22;41082;52.822;6.666;2022-12-11T15:27:49;2.20;99.90
55211;DHT22;41082;52.822;6.666;2022-12-11T15:32:44;2.10;99.90
55211;DHT22;41082;52.822;6.666;2022-12-11T15:35:24;2.20;99.90
55211;DHT22;41082;52.822;6.666;2022-12-11T15:37:52;2.20;99.90
55211;DHT22;41082;52.822;6.666;2022-12-11T15:40:17;2.30;99.90
55211;DHT22;41082;52.822;6.666;2022-12-11T15:42:43;2.20;99.90
55211;DHT22;41082;52.822;6.666;2022-12-11T15:45:35;2.20;99.90
55211;DHT22;41082;52.822;6.666;2022-12-11T15:48:01;2.20;99.90
55211;DHT22;41082;52.822;6.666;2022-12-11T15:50:28;2.20;99.90
55211;DHT22;41082;52.822;6.666;2022-12-11T15:52:55;2.20;99.90
55211;DHT22;41082;52.822;6.666;2022-12-11T15:55:22;2.10;99.90
55211;DHT22;41082;52.822;6.666;2022-12-11T15:57:57;2.10;99.90
55211;DHT22;41082;52.822;6.666;2022-12-11T16:00:23;2.20;99.90
55211;DHT22;41082;52.822;6.666;2022-12-11T16:02:50;2.10;99.90
55211;DHT22;41082;52.822;6.666;2022-12-11T16:05:16;2.10;99.90
55211;DHT22;41082;52.822;6.666;2022-12-11T16:07:42;2.10;99.90
55211;DHT22;41082;52.822;6.666;2022-12-11T16:10:13;2.20;99.90
55211;DHT22;41082;52.822;6.666;2022-12-11T16:12:39;2.20;99.90
55211;DHT22;41082;52.822;6.666;2022-12-11T16:15:05;2.10;99.90
55211;DHT22;41082;52.822;6.666;2022-12-11T16:17:30;2.20;99.90
55211;DHT22;41082;52.822;6.666;2022-12-11T16:19:56;2.10;99.90
55211;DHT22;41082;52.822;6.666;2022-12-11T16:22:22;2.10;99.90
55211;DHT22;41082;52.822;6.666;2022-12-11T16:24:52;2.10;99.90
55211;DHT22;41082;52.822;6.666;2022-12-11T16:27:19;2.20;99.90
55211;DHT22;41082;52.822;6.666;2022-12-11T16:29:45;2.10;99.90
55211;DHT22;41082;52.822;6.666;2022-12-11T16:32:11;2.10;99.90
55211;DHT22;41082;52.822;6.666;2022-12-11T16:34:37;2.20;99.90
55211;DHT22;41082;52.822;6.666;2022-12-11T16:37:04;2.10;99.90
55211;DHT22;41082;52.822;6.666;2022-12-11T16:39:30;2.10;99.90
55211;DHT22;41082;52.822;6.666;2022-12-11T16:41:56;2.20;99.90
55211;DHT22;41082;52.822;6.666;2022-12-11T16:44:24;2.20;99.90
55211;DHT22;41082;52.822;6.666;2022-12-11T16:46:50;2.20;99.90
55211;DHT22;41082;52.822;6.666;2022-12-11T16:49:17;2.20;99.90
55211;DHT22;41082;52.822;6.666;2022-12-11T16:51:42;2.20;99.90
55211;DHT22;41082;52.822;6.666;2022-12-11T16:54:09;2.20;99.90
55211;DHT22;41082;52.822;6.666;2022-12-11T16:56:35;2.20;99.90
55211;DHT22;41082;52.822;6.666;2022-12-11T16:59:02;2.20;99.90
55211;DHT22;41082;52.822;6.666;2022-12-11T17:01:28;2.20;99.90
55211;DHT22;41082;52.822;6.666;2022-12-11T17:03:53;2.20;99.90
55211;DHT22;41082;52.822;6.666;2022-12-11T17:06:19;2.10;99.90
55211;DHT22;41082;52.822;6.666;2022-12-11T17:08:45;2.10;99.90
55211;DHT22;41082;52.822;6.666;2022-12-11T17:11:16;2.10;99.90
55211;DHT22;41082;52.822;6.666;2022-12-11T17:13:42;2.10;99.90